Time;durP1;ratioP1;P1;durP2;ratioP2;P2;SDS_P1;SDS_P2;PMS_P1;PMS_P2;Temp;Humidity;BMP_temperature;BMP_pressure;BME280_temperature;BME280_humidity;BME280_pressure;Samples;Min_cycle;Max_cycle;Signal;HPM_P1;HPM_P2
2022/03/16 00:02:20;;;;;;;33.63;13.50;;;;;;;0.78;77.04;96007.03;5006242;28;20451;-48
2022/03/16 00:04:51;;;;;;;34.28;15.90;;;;;;;0.80;76.85;96006.88;5006149;28;20103;-47
2022/03/16 00:07:19;;;;;;;34.10;16.02;;;;;;;0.79;76.94;96006.06;5006188;28;20050;-48
2022/03/16 00:09:47;;;;;;;39.30;16.17;;;;;;;0.81;76.63;96006.75;5007445;28;20049;-48
2022/03/16 00:12:15;;;;;;;30.13;15.02;;;;;;;0.82;76.83;95995.53;5008118;28;20042;-48
2022/03/16 00:14:42;;;;;;;31.98;13.98;;;;;;;0.82;76.45;96005.78;5006591;28;20046;-48
2022/03/16 00:17:09;;;;;;;40.92;14.18;;;;;;;0.83;76.60;96002.28;5005842;28;20046;-49
2022/03/16 00:19:36;;;;;;;36.90;14.95;;;;;;;0.84;76.52;95991.06;5005703;28;20056;-51
2022/03/16 00:22:04;;;;;;;36.67;14.98;;;;;;;0.79;76.85;95980.41;5005674;28;20041;-51
2022/03/16 00:24:31;;;;;;;35.60;13.00;;;;;;;0.82;76.91;96000.66;5005715;28;20054;-48
2022/03/16 00:26:59;;;;;;;33.40;14.52;;;;;;;0.80;77.11;95989.72;5007023;28;20050;-47
2022/03/16 00:29:27;;;;;;;29.73;13.95;;;;;;;0.75;77.45;95973.97;4991549;28;20410;-51
2022/03/16 00:31:54;;;;;;;35.70;13.73;;;;;;;0.80;77.65;95987.16;5004586;28;20046;-52
2022/03/16 00:34:21;;;;;;;37.88;13.77;;;;;;;0.81;77.54;95986.22;4992193;28;20088;-51
2022/03/16 00:36:47;;;;;;;25.42;11.75;;;;;;;0.79;77.60;95977.84;5009202;28;20064;-51
2022/03/16 00:39:14;;;;;;;31.27;12.63;;;;;;;0.76;77.94;95966.13;5001557;28;20050;-48
2022/03/16 00:41:41;;;;;;;31.88;14.05;;;;;;;0.78;78.24;95955.72;5005470;28;20046;-48
2022/03/16 00:44:08;;;;;;;39.72;15.40;;;;;;;0.83;78.21;95956.13;5007412;28;20042;-51
2022/03/16 00:46:36;;;;;;;30.05;14.25;;;;;;;0.87;77.94;95957.44;5006469;28;20046;-48
2022/03/16 00:49:04;;;;;;;34.22;15.52;;;;;;;0.84;78.04;95942.31;4991021;28;20088;-52
2022/03/16 00:51:32;;;;;;;50.53;20.45;;;;;;;0.89;77.91;95945.28;5006511;28;20042;-47
2022/03/16 00:53:59;;;;;;;45.38;20.17;;;;;;;0.99;77.38;95936.72;5004835;28;20043;-48
2022/03/16 00:56:26;;;;;;;42.38;20.60;;;;;;;0.97;77.10;95930.91;5009277;28;20840;-47
2022/03/16 00:58:52;;;;;;;48.47;20.63;;;;;;;0.95;76.78;95929.31;5006296;28;20795;-50
2022/03/16 01:01:19;;;;;;;46.22;21.08;;;;;;;0.94;76.61;95935.41;5006471;28;20462;-50
2022/03/16 01:03:46;;;;;;;54.10;21.35;;;;;;;0.99;76.63;95923.88;4989097;28;20045;-48
2022/03/16 01:06:15;;;;;;;54.70;21.85;;;;;;;1.05;76.17;95928.47;5003551;28;20524;-52
2022/03/16 01:08:43;;;;;;;48.15;20.17;;;;;;;1.04;76.31;95919.94;5004854;28;20112;-53
2022/03/16 01:11:11;;;;;;;60.47;20.50;;;;;;;1.06;76.13;95914.66;5005820;28;20373;-50
2022/03/16 01:13:39;;;;;;;55.30;20.35;;;;;;;1.01;76.47;95901.44;5004024;28;20042;-48
2022/03/16 01:16:07;;;;;;;48.67;20.52;;;;;;;1.07;76.36;95908.59;5004286;28;20048;-50
2022/03/16 01:18:35;;;;;;;49.95;20.05;;;;;;;1.08;76.38;95895.63;4987176;28;20470;-51
2022/03/16 01:21:05;;;;;;;42.97;20.80;;;;;;;1.09;76.83;95894.66;5004508;28;20046;-49
2022/03/16 01:23:34;;;;;;;48.60;20.42;;;;;;;1.07;76.58;95890.63;5004584;28;20511;-49
2022/03/16 01:26:02;;;;;;;45.67;19.10;;;;;;;1.01;76.76;95870.66;5005599;28;20042;-50
2022/03/16 01:28:29;;;;;;;47.85;20.73;;;;;;;1.06;76.81;95883.88;5004261;28;20100;-48
2022/03/16 01:30:57;;;;;;;48.05;20.98;;;;;;;1.03;76.72;95879.06;5002095;28;20038;-51
2022/03/16 01:33:24;;;;;;;44.08;19.52;;;;;;;1.02;76.73;95882.56;5005217;28;20037;-49
2022/03/16 01:35:51;;;;;;;46.15;20.65;;;;;;;1.06;76.57;95889.00;5004531;28;20077;-48
2022/03/16 01:38:18;;;;;;;48.03;18.65;;;;;;;1.10;76.47;95874.94;5005112;28;20042;-48
2022/03/16 01:40:45;;;;;;;44.75;21.05;;;;;;;0.93;76.63;95854.25;5005276;28;20045;-48
2022/03/16 01:43:12;;;;;;;40.30;18.50;;;;;;;1.04;77.23;95865.25;5003984;28;20037;-50
2022/03/16 01:45:48;;;;;;;31.20;16.23;;;;;;;1.03;76.57;95863.66;5005807;28;20046;-49
2022/03/16 01:48:15;;;;;;;74.93;27.98;;;;;;;0.99;76.28;95867.44;5004911;28;20050;-51
2022/03/16 01:50:44;;;;;;;49.90;22.08;;;;;;;0.98;76.25;95870.97;5002015;28;20054;-48
2022/03/16 01:53:11;;;;;;;77.57;28.13;;;;;;;1.02;76.37;95862.03;5005452;28;20045;-49
2022/03/16 01:55:42;;;;;;;57.17;23.35;;;;;;;1.03;76.04;95868.78;4999516;28;20050;-47
2022/03/16 01:58:10;;;;;;;48.25;17.80;;;;;;;0.98;76.22;95858.16;5001545;28;20541;-47
2022/03/16 02:00:39;;;;;;;39.53;14.98;;;;;;;0.90;76.86;95854.56;4988795;28;20085;-48
2022/03/16 02:03:07;;;;;;;32.97;14.00;;;;;;;0.90;76.45;95849.44;5006534;28;20046;-47
2022/03/16 02:05:35;;;;;;;34.53;13.85;;;;;;;0.95;76.19;95847.25;5007952;28;20052;-49
2022/03/16 02:08:04;;;;;;;35.40;16.38;;;;;;;1.00;75.67;95838.28;5007844;28;20058;-50
2022/03/16 02:10:32;;;;;;;28.45;13.63;;;;;;;1.11;75.24;95830.38;5009748;28;20088;-48
2022/03/16 02:12:59;;;;;;;30.27;13.15;;;;;;;1.13;74.94;95833.59;5010388;28;20719;-49
2022/03/16 02:15:26;;;;;;;32.63;14.20;;;;;;;1.08;75.16;95831.47;5008781;28;20049;-47
2022/03/16 02:17:56;;;;;;;25.40;12.77;;;;;;;1.10;75.51;95827.00;5010978;28;20095;-50
2022/03/16 02:20:25;;;;;;;36.28;14.15;;;;;;;1.12;75.80;95831.97;5011918;28;20129;-52
2022/03/16 02:23:09;;;;;;;27.13;13.65;;;;;;;1.08;76.32;95825.50;5009867;28;20042;-52
2022/03/16 02:25:53;;;;;;;40.88;14.85;;;;;;;1.15;75.33;95829.09;5006991;28;20041;-50
2022/03/16 02:28:21;;;;;;;96.78;30.42;;;;;;;1.09;75.12;95827.13;5009228;28;20053;-49
2022/03/16 02:30:49;;;;;;;53.83;22.55;;;;;;;1.08;75.31;95815.25;5008081;28;20518;-48
2022/03/16 02:33:16;;;;;;;57.85;21.00;;;;;;;1.09;75.86;95829.72;5008259;28;20045;-51
2022/03/16 02:35:43;;;;;;;54.22;20.52;;;;;;;1.05;76.05;95825.81;5007778;28;20045;-53
2022/03/16 02:38:10;;;;;;;46.50;20.05;;;;;;;1.09;76.19;95827.13;5002866;28;20049;-52
2022/03/16 02:40:37;;;;;;;42.47;18.85;;;;;;;1.18;76.52;95828.81;5008916;28;20108;-47
2022/03/16 02:43:04;;;;;;;40.28;16.77;;;;;;;1.23;76.33;95820.69;5008431;28;20054;-49
2022/03/16 02:45:31;;;;;;;45.72;18.77;;;;;;;1.24;75.87;95817.97;5008702;28;20053;-48
2022/03/16 02:47:58;;;;;;;39.88;16.98;;;;;;;1.31;76.11;95826.69;5007124;28;20041;-50
2022/03/16 02:50:25;;;;;;;46.58;20.08;;;;;;;1.26;76.06;95810.09;5008543;28;20057;-48
2022/03/16 02:52:52;;;;;;;44.78;18.55;;;;;;;1.34;76.37;95816.09;5012666;28;20065;-53
2022/03/16 02:55:39;;;;;;;45.25;18.08;;;;;;;1.38;76.18;95813.25;5008546;28;20069;-48
2022/03/16 02:58:07;;;;;;;36.22;13.63;;;;;;;1.34;76.29;95821.25;5009512;28;20481;-48
2022/03/16 03:00:34;;;;;;;29.75;13.60;;;;;;;1.36;75.78;95798.00;5007464;28;20103;-49
2022/03/16 03:03:01;;;;;;;32.25;13.02;;;;;;;1.34;76.27;95794.78;5009774;28;20034;-50
2022/03/16 03:05:28;;;;;;;29.30;14.68;;;;;;;1.34;76.59;95800.72;5009382;28;20041;-47
2022/03/16 03:07:54;;;;;;;28.45;12.10;;;;;;;1.24;77.09;95789.75;5006625;28;20073;-49
2022/03/16 03:10:21;;;;;;;42.13;16.92;;;;;;;1.01;77.37;95783.44;5011755;28;20042;-50
2022/03/16 03:12:48;;;;;;;56.70;19.33;;;;;;;1.08;77.90;95784.47;5008985;28;20462;-47
2022/03/16 03:15:15;;;;;;;40.83;16.10;;;;;;;1.16;77.54;95787.09;5008879;28;20054;-53
2022/03/16 03:17:42;;;;;;;45.25;18.50;;;;;;;1.17;77.60;95783.59;5006251;28;20499;-48
2022/03/16 03:20:10;;;;;;;51.97;20.63;;;;;;;1.21;77.74;95779.78;5006449;28;20766;-48
2022/03/16 03:22:38;;;;;;;45.42;21.08;;;;;;;1.25;77.62;95780.28;4990533;28;20049;-48
2022/03/16 03:25:09;;;;;;;47.13;20.33;;;;;;;1.20;77.67;95773.00;5009129;28;20045;-48
2022/03/16 03:27:35;;;;;;;60.20;26.60;;;;;;;1.17;77.78;95763.06;5006215;28;20049;-50
2022/03/16 03:30:04;;;;;;;39.92;18.70;;;;;;;1.22;77.25;95772.88;5009230;28;20446;-52
2022/03/16 03:32:31;;;;;;;32.47;16.90;;;;;;;1.21;77.87;95772.06;5007463;28;20041;-48
2022/03/16 03:34:57;;;;;;;34.10;14.20;;;;;;;1.18;78.20;95769.78;5007681;28;20380;-50
2022/03/16 03:37:30;;;;;;;26.70;12.85;;;;;;;1.17;79.13;95768.19;5008624;28;20064;-50
2022/03/16 03:39:57;;;;;;;31.92;15.07;;;;;;;1.17;79.04;95778.47;5006544;28;20507;-53
2022/03/16 03:42:24;;;;;;;28.02;13.52;;;;;;;1.25;79.00;95778.50;5007878;28;20045;-51
2022/03/16 03:44:51;;;;;;;33.90;14.10;;;;;;;1.25;78.58;95778.50;5007720;28;20065;-49
2022/03/16 03:47:18;;;;;;;33.70;14.68;;;;;;;1.24;78.83;95774.34;5008328;28;20048;-49
2022/03/16 03:49:44;;;;;;;29.98;15.32;;;;;;;1.28;78.71;95765.38;5007002;28;20049;-49
2022/03/16 03:52:11;;;;;;;28.63;13.80;;;;;;;1.33;78.74;95768.31;5007355;28;20096;-49
2022/03/16 03:54:40;;;;;;;31.80;13.77;;;;;;;1.34;79.23;95775.03;5006529;28;20065;-53
2022/03/16 03:57:07;;;;;;;22.65;11.40;;;;;;;1.39;78.68;95776.34;5009629;28;20059;-49
2022/03/16 03:59:34;;;;;;;27.50;14.68;;;;;;;1.39;78.34;95766.06;5006400;28;20050;-50
2022/03/16 04:02:02;;;;;;;25.33;11.60;;;;;;;1.34;77.75;95754.50;5005532;28;20518;-52
2022/03/16 04:04:29;;;;;;;30.52;13.45;;;;;;;1.42;76.84;95761.44;5006940;28;20076;-50
2022/03/16 04:06:56;;;;;;;26.17;12.25;;;;;;;1.43;76.28;95757.13;5005488;28;20069;-49
2022/03/16 04:09:23;;;;;;;23.65;11.07;;;;;;;1.42;75.83;95760.66;5005471;28;20050;-48
2022/03/16 04:11:49;;;;;;;23.05;12.13;;;;;;;1.43;74.99;95768.19;5006498;28;20050;-48
2022/03/16 04:14:16;;;;;;;27.02;12.02;;;;;;;1.46;75.17;95772.22;5005756;28;20053;-51
2022/03/16 04:16:43;;;;;;;25.08;13.60;;;;;;;1.45;75.05;95760.34;5004899;28;20042;-48
2022/03/16 04:19:10;;;;;;;41.20;14.50;;;;;;;1.57;74.33;95764.28;5006564;28;20074;-48
2022/03/16 04:21:37;;;;;;;26.23;12.13;;;;;;;1.61;74.38;95752.75;5006941;28;20052;-50
2022/03/16 04:24:04;;;;;;;24.80;12.05;;;;;;;1.62;74.34;95751.81;5006460;28;20120;-49
2022/03/16 04:26:31;;;;;;;28.77;13.25;;;;;;;1.63;74.68;95753.41;5008654;28;20066;-50
2022/03/16 04:28:58;;;;;;;29.02;13.65;;;;;;;1.69;74.54;95751.97;5005283;28;20053;-51
2022/03/16 04:31:25;;;;;;;27.38;12.35;;;;;;;1.72;73.98;95742.19;5005444;28;20050;-52
2022/03/16 04:33:52;;;;;;;29.25;13.27;;;;;;;1.75;74.03;95750.56;5007357;28;20060;-48
2022/03/16 04:36:19;;;;;;;30.65;14.13;;;;;;;1.76;74.31;95749.59;5007744;28;20045;-49
2022/03/16 04:38:46;;;;;;;34.10;13.95;;;;;;;1.80;74.58;95745.78;5007079;28;20056;-48
2022/03/16 04:41:13;;;;;;;28.40;12.40;;;;;;;1.79;74.10;95746.75;5006590;28;20038;-53
2022/03/16 04:43:39;;;;;;;31.20;13.25;;;;;;;1.85;74.16;95748.69;5005486;28;20108;-52
2022/03/16 04:46:06;;;;;;;30.20;14.27;;;;;;;1.90;73.64;95739.56;5006711;28;20046;-48
2022/03/16 04:48:33;;;;;;;35.45;15.85;;;;;;;1.91;73.84;95735.25;5006647;28;20048;-49
2022/03/16 04:51:00;;;;;;;39.40;16.55;;;;;;;1.90;73.62;95733.63;5007155;28;20049;-48
2022/03/16 04:53:27;;;;;;;44.08;16.13;;;;;;;1.93;74.26;95728.19;5011932;28;20037;-49
2022/03/16 04:55:54;;;;;;;43.65;15.45;;;;;;;1.91;74.37;95714.69;5007428;28;20041;-49
2022/03/16 04:58:21;;;;;;;42.65;19.08;;;;;;;1.93;74.51;95723.03;5010791;28;20521;-49
2022/03/16 05:00:48;;;;;;;48.08;18.48;;;;;;;1.94;74.22;95719.50;5009589;28;20505;-51
2022/03/16 05:03:15;;;;;;;37.25;18.48;;;;;;;1.87;74.84;95713.38;5009159;28;20410;-49
2022/03/16 05:05:42;;;;;;;28.90;14.60;;;;;;;1.90;75.19;95713.88;5009546;28;20100;-53
2022/03/16 05:08:09;;;;;;;26.55;12.98;;;;;;;1.89;75.02;95721.72;5010232;28;20061;-51
2022/03/16 05:10:36;;;;;;;36.15;14.10;;;;;;;1.88;74.89;95709.84;5008881;28;20037;-51
2022/03/16 05:13:02;;;;;;;27.92;11.65;;;;;;;1.79;74.61;95705.66;5011383;28;20072;-48
2022/03/16 05:15:30;;;;;;;23.00;11.85;;;;;;;1.78;74.99;95709.97;5008926;28;20034;-49
2022/03/16 05:17:56;;;;;;;21.40;11.20;;;;;;;1.77;75.47;95700.66;5006485;28;20045;-49
2022/03/16 05:20:23;;;;;;;26.65;11.60;;;;;;;1.82;75.43;95706.13;5005021;28;20044;-48
2022/03/16 05:22:52;;;;;;;28.73;12.23;;;;;;;1.83;75.27;95712.06;5005355;28;20045;-49
2022/03/16 05:25:22;;;;;;;39.83;14.07;;;;;;;1.84;74.23;95708.56;5011792;28;20418;-49
2022/03/16 05:27:49;;;;;;;33.45;12.85;;;;;;;1.86;74.25;95702.28;5007854;28;20046;-48
2022/03/16 05:30:16;;;;;;;33.78;14.90;;;;;;;1.84;73.89;95698.28;5008087;28;20483;-50
2022/03/16 05:32:43;;;;;;;26.45;13.82;;;;;;;1.91;73.72;95689.00;5004915;28;20438;-50
2022/03/16 05:35:12;;;;;;;31.02;12.27;;;;;;;1.96;74.28;95686.75;5008877;28;20511;-51
2022/03/16 05:37:40;;;;;;;32.88;12.77;;;;;;;2.03;74.28;95690.28;5012412;28;20434;-52
2022/03/16 05:40:08;;;;;;;44.00;19.50;;;;;;;2.00;73.94;95677.78;5010817;28;20063;-53
2022/03/16 05:42:35;;;;;;;31.70;17.40;;;;;;;2.02;73.72;95675.84;5013961;28;20050;-50
2022/03/16 05:45:03;;;;;;;45.00;18.88;;;;;;;2.12;74.19;95680.03;5012617;28;20037;-52
2022/03/16 05:47:30;;;;;;;46.55;19.80;;;;;;;2.19;73.85;95670.75;5011124;28;20128;-52
2022/03/16 05:49:57;;;;;;;34.85;15.20;;;;;;;2.21;73.87;95669.63;5013094;28;20048;-50
2022/03/16 05:52:25;;;;;;;31.10;15.85;;;;;;;2.27;74.06;95673.34;5012964;28;20048;-50
2022/03/16 05:54:54;;;;;;;37.63;18.70;;;;;;;2.26;73.56;95664.81;5012093;28;20046;-49
2022/03/16 05:57:22;;;;;;;34.00;17.15;;;;;;;2.31;73.49;95669.50;5012601;28;20041;-51
2022/03/16 05:59:49;;;;;;;31.63;16.02;;;;;;;2.39;72.82;95666.91;5014155;28;20058;-48
2022/03/16 06:02:17;;;;;;;34.80;15.90;;;;;;;2.43;72.54;95662.25;5011259;28;20491;-47
2022/03/16 06:04:44;;;;;;;32.28;14.85;;;;;;;2.57;73.40;95668.53;5010086;28;20052;-50
2022/03/16 06:07:12;;;;;;;37.72;19.15;;;;;;;2.57;72.75;95647.97;5008134;28;20054;-48
2022/03/16 06:09:40;;;;;;;56.55;16.83;;;;;;;2.71;71.57;95654.25;5010187;28;20053;-51
2022/03/16 06:12:08;;;;;;;29.40;14.98;;;;;;;2.72;71.47;95661.81;5008337;28;20040;-49
2022/03/16 06:14:35;;;;;;;41.78;17.23;;;;;;;2.75;71.36;95651.16;5011305;28;20056;-53
2022/03/16 06:17:03;;;;;;;30.75;13.90;;;;;;;2.86;71.02;95658.56;5009464;28;20046;-48
2022/03/16 06:19:30;;;;;;;35.28;16.00;;;;;;;2.95;70.84;95650.84;5008888;28;20457;-47
2022/03/16 06:21:56;;;;;;;37.13;17.52;;;;;;;3.00;70.87;95651.94;5007023;28;20404;-53
2022/03/16 06:24:23;;;;;;;35.60;19.20;;;;;;;3.04;70.99;95655.00;5009871;28;20046;-53
2022/03/16 06:26:52;;;;;;;36.22;18.90;;;;;;;3.12;70.23;95647.28;5010605;28;20100;-49
2022/03/16 06:29:18;;;;;;;31.80;15.77;;;;;;;3.14;70.50;95650.47;5012028;28;20049;-50
2022/03/16 06:31:45;;;;;;;25.17;12.70;;;;;;;3.18;70.34;95651.75;5012918;28;20058;-50
2022/03/16 06:34:12;;;;;;;34.08;17.13;;;;;;;3.24;70.97;95640.81;5012186;28;20160;-51
2022/03/16 06:36:40;;;;;;;67.65;30.25;;;;;;;3.30;71.12;95638.56;5011954;28;20052;-50
2022/03/16 06:39:07;;;;;;;77.35;32.83;;;;;;;3.31;71.55;95640.13;5011932;28;20038;-49
2022/03/16 06:41:34;;;;;;;96.70;41.97;;;;;;;3.37;71.49;95649.78;5012175;28;20046;-49
2022/03/16 06:44:00;;;;;;;80.50;38.40;;;;;;;3.47;70.55;95652.97;5014248;28;20042;-54
2022/03/16 06:46:27;;;;;;;70.47;35.22;;;;;;;3.56;69.57;95643.44;5010488;28;20046;-51
2022/03/16 06:48:54;;;;;;;87.95;41.78;;;;;;;3.62;68.82;95653.88;5006320;28;20084;-53
2022/03/16 06:51:21;;;;;;;70.50;31.75;;;;;;;3.60;68.24;95655.84;5007481;28;20045;-51
2022/03/16 06:53:48;;;;;;;91.43;37.22;;;;;;;3.60;67.70;95650.69;5004713;28;20037;-49
2022/03/16 06:56:15;;;;;;;75.15;35.85;;;;;;;3.67;67.79;95655.94;5007170;28;20506;-51
2022/03/16 06:58:42;;;;;;;69.22;33.65;;;;;;;3.76;67.38;95661.88;5010639;28;20046;-51
2022/03/16 07:01:09;;;;;;;58.05;27.13;;;;;;;3.79;67.03;95658.97;5010553;28;20046;-49
2022/03/16 07:03:35;;;;;;;89.03;36.15;;;;;;;3.85;66.17;95657.50;5008244;28;20045;-52
2022/03/16 07:06:02;;;;;;;102.93;37.70;;;;;;;3.88;65.67;95663.13;5007183;28;20168;-50
2022/03/16 07:08:29;;;;;;;64.55;25.00;;;;;;;3.86;65.39;95649.59;5007162;28;20042;-51
2022/03/16 07:10:56;;;;;;;53.58;23.05;;;;;;;3.86;65.72;95652.16;5006724;28;20486;-53
2022/03/16 07:13:22;;;;;;;53.97;24.67;;;;;;;3.78;65.54;95642.72;5008070;28;20042;-49
2022/03/16 07:15:49;;;;;;;46.13;24.55;;;;;;;3.83;65.74;95652.50;5008019;28;20105;-52
2022/03/16 07:18:16;;;;;;;51.97;22.85;;;;;;;3.80;66.08;95658.00;5006760;28;20050;-48
2022/03/16 07:20:43;;;;;;;37.60;18.38;;;;;;;3.71;67.09;95646.09;5007007;28;20046;-48
2022/03/16 07:23:12;;;;;;;35.55;15.55;;;;;;;3.74;68.50;95651.72;5008259;28;20092;-51
2022/03/16 07:25:43;;;;;;;39.33;17.80;;;;;;;3.58;72.64;95641.50;5008353;28;20053;-50
2022/03/16 07:28:12;;;;;;;28.20;15.95;;;;;;;3.57;74.38;95643.28;5007647;28;20523;-53
2022/03/16 07:30:40;;;;;;;31.85;15.10;;;;;;;3.63;74.29;95640.03;5006721;28;20048;-50
2022/03/16 07:33:07;;;;;;;77.90;21.05;;;;;;;3.57;74.89;95647.63;5008716;28;20104;-50
2022/03/16 07:35:35;;;;;;;37.13;15.88;;;;;;;3.56;75.52;95641.66;5008150;28;20491;-49
2022/03/16 07:38:02;;;;;;;27.27;13.30;;;;;;;3.32;76.57;95641.75;5007531;28;20045;-52
2022/03/16 07:40:31;;;;;;;32.78;15.63;;;;;;;3.25;76.17;95637.25;5008945;28;20049;-52
2022/03/16 07:42:59;;;;;;;28.42;13.45;;;;;;;3.28;76.61;95640.47;5006834;28;20049;-52
2022/03/16 07:45:26;;;;;;;20.15;11.07;;;;;;;3.22;77.07;95637.59;5008789;28;20069;-48
2022/03/16 07:47:53;;;;;;;21.55;11.20;;;;;;;3.18;77.55;95636.31;5007128;28;20049;-48
2022/03/16 07:50:20;;;;;;;24.95;11.93;;;;;;;3.31;75.95;95625.50;5009228;28;20133;-48
2022/03/16 07:52:47;;;;;;;28.48;14.40;;;;;;;3.32;75.44;95614.22;5006002;28;20042;-49
2022/03/16 07:55:14;;;;;;;27.98;13.55;;;;;;;3.61;75.44;95631.66;5007862;28;20049;-50
2022/03/16 07:57:43;;;;;;;33.78;15.13;;;;;;;3.80;74.17;95624.50;5008940;28;20183;-49
2022/03/16 08:00:12;;;;;;;27.20;13.32;;;;;;;3.91;73.04;95621.53;5009037;28;20069;-50
2022/03/16 08:02:40;;;;;;;37.75;15.10;;;;;;;3.96;71.09;95624.41;5009619;28;20057;-48
2022/03/16 08:05:08;;;;;;;45.03;17.83;;;;;;;4.08;70.80;95629.19;5010110;28;20049;-50
2022/03/16 08:07:36;;;;;;;45.80;20.83;;;;;;;4.23;70.18;95630.03;5009032;28;20053;-52
2022/03/16 08:10:03;;;;;;;48.30;19.40;;;;;;;4.38;69.44;95628.34;5006191;28;20049;-50
2022/03/16 08:12:31;;;;;;;40.58;17.63;;;;;;;4.54;67.61;95632.56;5007905;28;20045;-48
2022/03/16 08:15:00;;;;;;;47.75;17.45;;;;;;;4.55;66.94;95633.38;5007082;28;20123;-48
2022/03/16 08:17:26;;;;;;;44.95;18.60;;;;;;;4.62;66.50;95628.31;5010248;28;20073;-50
2022/03/16 08:19:53;;;;;;;36.80;18.10;;;;;;;4.72;66.07;95628.91;5007589;28;20049;-50
2022/03/16 08:22:28;;;;;;;34.65;15.90;;;;;;;4.81;66.71;95627.03;5009330;28;20042;-48
2022/03/16 08:24:56;;;;;;;35.10;16.70;;;;;;;4.94;66.04;95624.66;5008853;28;21233;-48
2022/03/16 08:27:24;;;;;;;36.80;14.90;;;;;;;5.11;64.97;95626.13;5010713;28;20050;-48
2022/03/16 08:29:51;;;;;;;25.63;14.27;;;;;;;5.22;63.95;95621.47;5006768;28;20053;-50
2022/03/16 08:32:18;;;;;;;33.17;13.77;;;;;;;5.39;64.46;95625.47;5004779;28;20766;-50
2022/03/16 08:34:45;;;;;;;26.58;13.50;;;;;;;5.52;62.37;95609.34;5009294;28;20054;-52
2022/03/16 08:37:13;;;;;;;26.33;13.02;;;;;;;5.73;62.83;95617.16;5008189;28;20422;-50
2022/03/16 08:39:41;;;;;;;26.48;13.77;;;;;;;5.90;61.33;95611.78;5008348;28;20054;-48
2022/03/16 08:42:10;;;;;;;47.67;12.52;;;;;;;6.06;60.40;95609.00;5005090;28;20104;-49
2022/03/16 08:44:38;;;;;;;33.35;12.30;;;;;;;6.13;60.24;95601.31;5006187;28;20076;-48
2022/03/16 08:47:05;;;;;;;35.58;15.05;;;;;;;6.37;59.48;95612.28;5003471;28;20123;-50
2022/03/16 08:49:32;;;;;;;27.23;15.38;;;;;;;6.48;58.87;95598.84;5007160;28;20061;-50
2022/03/16 08:51:59;;;;;;;30.15;14.45;;;;;;;6.65;56.73;95610.53;5005649;28;20065;-50
2022/03/16 08:54:26;;;;;;;33.03;15.35;;;;;;;6.75;56.35;95606.81;5008276;28;20537;-48
2022/03/16 08:56:53;;;;;;;35.42;14.93;;;;;;;6.89;55.94;95603.34;5007321;28;20433;-49
2022/03/16 08:59:20;;;;;;;21.52;11.88;;;;;;;7.00;53.78;95602.81;5009451;28;20041;-48
2022/03/16 09:01:47;;;;;;;21.30;10.77;;;;;;;7.04;52.93;95598.88;5006349;28;20509;-51
2022/03/16 09:04:15;;;;;;;22.90;11.43;;;;;;;7.15;52.74;95604.50;5006722;28;20573;-51
2022/03/16 09:06:42;;;;;;;34.13;12.50;;;;;;;7.19;52.55;95590.19;5006960;28;20065;-50
2022/03/16 09:09:09;;;;;;;25.17;14.40;;;;;;;7.28;51.44;95600.22;5006015;28;20042;-51
2022/03/16 09:11:36;;;;;;;27.92;14.43;;;;;;;7.30;51.61;95594.84;5004513;28;20050;-51
2022/03/16 09:14:05;;;;;;;23.58;10.43;;;;;;;7.28;50.61;95600.22;5006153;28;20038;-49
2022/03/16 09:16:32;;;;;;;22.90;11.80;;;;;;;7.35;48.92;95597.66;5007734;28;20053;-50
2022/03/16 09:19:00;;;;;;;22.92;10.18;;;;;;;7.40;47.67;95597.88;5005598;28;20054;-48
2022/03/16 09:21:27;;;;;;;20.88;10.75;;;;;;;7.42;48.03;95600.28;5006458;28;20062;-48
2022/03/16 09:23:54;;;;;;;15.20;8.98;;;;;;;7.45;46.83;95600.72;5006827;28;20538;-51
2022/03/16 09:26:21;;;;;;;20.60;11.07;;;;;;;7.48;46.58;95591.75;5005560;28;20054;-48
2022/03/16 09:28:51;;;;;;;17.45;9.48;;;;;;;7.57;46.36;95590.59;5005240;28;20037;-51
2022/03/16 09:31:20;;;;;;;17.42;8.80;;;;;;;7.71;44.93;95594.03;5005351;28;20045;-50
2022/03/16 09:33:48;;;;;;;17.63;9.88;;;;;;;7.84;44.61;95583.69;5007012;28;20108;-52
2022/03/16 09:36:15;;;;;;;19.40;9.88;;;;;;;8.04;44.36;95594.13;5006101;28;20034;-50
2022/03/16 09:38:42;;;;;;;17.42;10.13;;;;;;;8.23;42.19;95597.78;5006862;28;20037;-51
2022/03/16 09:41:09;;;;;;;15.63;8.45;;;;;;;8.24;40.54;95599.34;5006793;28;20045;-49
2022/03/16 09:43:35;;;;;;;18.58;9.55;;;;;;;8.32;40.47;95610.53;5005164;28;20045;-52
2022/03/16 09:46:13;;;;;;;21.08;10.88;;;;;;;8.38;40.16;95604.59;5005622;28;20041;-48
2022/03/16 09:48:41;;;;;;;26.25;11.38;;;;;;;8.37;40.55;95598.59;5005104;28;20103;-48
2022/03/16 09:51:09;;;;;;;23.75;11.23;;;;;;;8.74;40.60;95603.44;5005499;28;20041;-49
2022/03/16 09:53:37;;;;;;;25.88;11.00;;;;;;;8.53;40.24;95594.81;5006670;28;20115;-49
2022/03/16 09:56:05;;;;;;;20.50;11.25;;;;;;;8.55;40.44;95585.06;5009574;28;20058;-48
2022/03/16 09:58:32;;;;;;;23.40;12.05;;;;;;;8.41;40.85;95593.81;5008356;28;20053;-49
2022/03/16 10:01:00;;;;;;;23.52;11.63;;;;;;;8.58;41.49;95592.44;5005464;28;20442;-48
2022/03/16 10:03:30;;;;;;;25.30;11.38;;;;;;;8.77;40.74;95588.25;5006001;28;20404;-51
2022/03/16 10:05:58;;;;;;;20.20;11.10;;;;;;;8.55;40.59;95595.44;5005411;28;20462;-47
2022/03/16 10:08:30;;;;;;;22.65;10.90;;;;;;;8.40;40.89;95593.00;5005121;28;20050;-48
2022/03/16 10:14:07;;;;;;;24.60;11.77;;;;;;;8.17;43.13;95582.19;5004769;28;20050;-47
2022/03/16 10:19:21;;;;;;;35.08;15.43;;;;;;;7.89;43.93;95574.56;5005126;28;20056;-51
2022/03/16 10:21:59;;;;;;;31.83;13.23;;;;;;;7.82;44.25;95577.91;5006474;28;20042;-48
2022/03/16 10:24:29;;;;;;;22.85;10.73;;;;;;;7.77;44.30;95575.09;5008023;28;20042;-48
2022/03/16 10:27:00;;;;;;;30.73;11.43;;;;;;;7.80;45.01;95572.13;5007440;28;20120;-50
2022/03/16 10:29:27;;;;;;;26.52;13.25;;;;;;;7.75;45.38;95573.69;5010099;28;20056;-48
2022/03/16 10:32:02;;;;;;;21.17;10.43;;;;;;;7.75;45.46;95574.50;5010978;28;20049;-48
2022/03/16 10:34:30;;;;;;;25.13;11.48;;;;;;;7.75;45.55;95584.06;5007717;28;20057;-49
2022/03/16 10:37:09;;;;;;;25.23;13.23;;;;;;;7.78;46.24;95581.88;5007116;28;20042;-50
2022/03/16 10:39:36;;;;;;;155.07;58.15;;;;;;;7.71;46.86;95582.88;5009671;28;20523;-50
2022/03/16 10:48:19;;;;;;;49.92;20.50;;;;;;;7.52;57.26;95559.25;5006698;28;20069;-52
2022/03/16 10:50:48;;;;;;;52.33;24.55;;;;;;;7.51;57.13;95573.22;5009104;28;20042;-47
2022/03/16 10:53:17;;;;;;;36.88;17.70;;;;;;;6.98;55.81;95563.34;5007287;28;20050;-51
2022/03/16 10:55:46;;;;;;;37.53;16.75;;;;;;;7.10;58.11;95555.88;5011253;28;20434;-47
2022/03/16 10:58:14;;;;;;;27.70;13.55;;;;;;;7.22;58.51;95548.34;5007535;28;20483;-51
2022/03/16 11:00:42;;;;;;;28.52;14.43;;;;;;;7.27;57.79;95543.38;5008223;28;20054;-49
2022/03/16 11:03:17;;;;;;;27.38;13.50;;;;;;;7.38;56.47;95542.88;5005383;28;20050;-50
2022/03/16 11:05:45;;;;;;;32.08;14.73;;;;;;;7.49;53.94;95551.06;5009932;28;20041;-49
2022/03/16 11:08:12;;;;;;;43.15;14.60;;;;;;;7.41;54.07;95534.69;5009119;28;20049;-50
2022/03/16 11:10:41;;;;;;;29.48;13.80;;;;;;;7.40;54.58;95533.09;5009503;28;20244;-49
2022/03/16 11:13:28;;;;;;;30.65;14.05;;;;;;;7.18;54.26;95537.56;5007613;28;20049;-52
2022/03/16 11:15:59;;;;;;;32.08;15.32;;;;;;;7.01;54.85;95531.91;5010851;28;20519;-50
2022/03/16 11:18:27;;;;;;;27.17;13.35;;;;;;;6.77;55.00;95529.75;5006544;28;20058;-48
2022/03/16 11:20:56;;;;;;;38.90;13.98;;;;;;;6.58;56.58;95536.41;5008518;28;21759;-48
2022/03/16 11:27:09;;;;;;;41.72;14.98;;;;;;;6.63;55.62;95529.69;5006998;28;20661;-51
2022/03/16 11:30:07;;;;;;;32.30;11.82;;;;;;;6.66;54.26;95523.31;4965068;28;20073;-49
2022/03/16 11:32:38;;;;;;;26.65;11.00;;;;;;;6.55;54.55;95527.22;4964655;28;20051;-48
2022/03/16 11:35:11;;;;;;;33.28;12.93;;;;;;;6.54;53.40;95525.63;4994436;28;20058;-52
2022/03/16 11:37:43;;;;;;;32.00;12.85;;;;;;;6.72;52.45;95516.56;5008820;28;20077;-49
2022/03/16 11:40:23;;;;;;;36.63;12.88;;;;;;;6.79;52.54;95512.25;5006688;28;20038;-50
2022/03/16 11:43:05;;;;;;;30.23;11.95;;;;;;;6.84;52.28;95510.72;5007169;28;20053;-47
2022/03/16 11:45:38;;;;;;;26.42;12.73;;;;;;;6.90;51.73;95506.56;5008452;28;20045;-50